Time;durP1;ratioP1;P1;durP2;ratioP2;P2;SDS_P1;SDS_P2;PMS_P1;PMS_P2;Temp;Humidity;BMP_temperature;BMP_pressure;BME280_temperature;BME280_humidity;BME280_pressure;Samples;Min_cycle;Max_cycle;Signal;HPM_P1;HPM_P2
2023/01/09 07:28:40;;;;;;;1.87;1.77;;;6.30;99.90;;;;;;5112686;27;20536;-78
2023/01/09 07:31:06;;;;;;;4.20;3.90;;;6.50;99.90;;;;;;5095444;28;20198;-78
2023/01/09 07:33:33;;;;;;;2.57;1.90;;;6.60;99.90;;;;;;5095817;28;20226;-78
2023/01/09 07:35:58;;;;;;;1.60;1.60;;;6.60;99.90;;;;;;5094802;28;20173;-79
2023/01/09 07:38:25;;;;;;;1.20;1.20;;;6.70;99.90;;;;;;5095399;28;20224;-77
2023/01/09 07:40:50;;;;;;;1.60;1.60;;;6.70;99.90;;;;;;5094850;28;20184;-77
2023/01/09 07:43:16;;;;;;;3.45;2.80;;;6.70;99.90;;;;;;5093820;28;20199;-77
2023/01/09 07:45:42;;;;;;;1.60;1.50;;;6.70;99.90;;;;;;5094801;28;20211;-77
2023/01/09 07:48:08;;;;;;;2.88;1.80;;;6.70;99.90;;;;;;5094012;28;20180;-77
2023/01/09 07:50:33;;;;;;;1.40;1.30;;;6.80;99.90;;;;;;5112034;28;20176;-77
2023/01/09 07:52:59;;;;;;;1.90;1.80;;;6.80;99.90;;;;;;5093689;28;20312;-77
2023/01/09 07:55:24;;;;;;;1.67;1.58;;;6.80;99.90;;;;;;5093519;28;20187;-77
2023/01/09 07:57:50;;;;;;;2.70;1.38;;;6.80;99.90;;;;;;5093673;28;20227;-77
2023/01/09 08:00:17;;;;;;;3.17;2.75;;;6.80;99.90;;;;;;5112187;28;20231;-77
2023/01/09 08:02:43;;;;;;;2.17;2.08;;;6.80;99.90;;;;;;5093384;28;20212;-77
2023/01/09 08:05:13;;;;;;;1.98;1.50;;;6.90;99.90;;;;;;5093709;28;20180;-77
2023/01/09 08:07:39;;;;;;;4.55;1.55;;;6.80;99.90;;;;;;5093060;28;20199;-77
2023/01/09 08:10:05;;;;;;;1.75;1.40;;;6.80;99.90;;;;;;5093230;28;20180;-77
2023/01/09 08:12:30;;;;;;;0.95;0.95;;;6.80;99.90;;;;;;5111505;28;20192;-77
2023/01/09 08:14:56;;;;;;;1.00;1.00;;;6.70;99.90;;;;;;5093315;28;20176;-77
2023/01/09 08:17:22;;;;;;;1.50;1.00;;;6.70;99.90;;;;;;5093178;28;20215;-77
2023/01/09 08:19:47;;;;;;;1.10;1.00;;;6.70;99.90;;;;;;5093149;28;20180;-77
2023/01/09 08:22:13;;;;;;;2.15;0.95;;;6.70;99.90;;;;;;5093185;28;20180;-77
2023/01/09 08:24:38;;;;;;;1.58;1.48;;;6.80;99.90;;;;;;5093201;28;20183;-77
2023/01/09 08:27:04;;;;;;;1.20;1.05;;;6.80;99.90;;;;;;5092734;28;20188;-77
2023/01/09 08:29:29;;;;;;;2.10;1.60;;;6.80;99.90;;;;;;5092885;28;20191;-77
2023/01/09 08:31:55;;;;;;;4.10;1.63;;;6.80;99.90;;;;;;5111225;28;20180;-77
2023/01/09 08:34:21;;;;;;;1.00;1.00;;;6.80;99.90;;;;;;5093075;28;20204;-77
2023/01/09 08:36:47;;;;;;;1.52;1.30;;;6.80;99.90;;;;;;5110895;28;20197;-77
2023/01/09 08:39:12;;;;;;;1.67;1.15;;;6.80;99.90;;;;;;5084051;28;20193;-77
2023/01/09 08:47:06;;;;;;;2.88;1.20;;;6.90;99.90;;;;;;5097707;28;20256;-77
2023/01/09 08:49:34;;;;;;;3.22;1.17;;;6.90;99.90;;;;;;5079331;28;20205;-77
2023/01/09 08:51:59;;;;;;;1.52;0.85;;;6.90;99.90;;;;;;5080087;28;20189;-77
2023/01/09 08:54:25;;;;;;;2.55;1.67;;;7.00;99.90;;;;;;5079158;28;20200;-77
2023/01/09 08:56:50;;;;;;;1.45;1.02;;;7.00;99.90;;;;;;5097639;28;20211;-77
2023/01/09 08:59:16;;;;;;;5.57;3.47;;;7.00;99.90;;;;;;5078697;28;20173;-77
2023/01/09 09:01:41;;;;;;;4.63;3.72;;;7.00;99.90;;;;;;5078661;28;20272;-77
2023/01/09 09:04:07;;;;;;;4.20;1.75;;;7.00;99.90;;;;;;5078619;28;20234;-77
2023/01/09 09:06:33;;;;;;;5.50;4.60;;;7.00;99.90;;;;;;5078843;28;20177;-77
2023/01/09 09:09:02;;;;;;;6.70;4.20;;;7.00;99.90;;;;;;5078570;28;20173;-77
2023/01/09 09:11:34;;;;;;;7.07;4.95;;;7.00;99.90;;;;;;5096401;28;20204;-77
2023/01/09 09:15:11;;;;;;;6.72;6.03;;;7.10;99.90;;;;;;5078846;28;20204;-77
2023/01/09 09:16:46;;;;;;;7.80;4.82;;;7.20;99.90;;;;;;5096202;28;20201;-77
2023/01/09 09:19:11;;;;;;;5.63;5.13;;;7.20;99.90;;;;;;5078160;28;20173;-77
2023/01/09 09:21:37;;;;;;;4.70;2.70;;;7.20;99.90;;;;;;5079243;28;20172;-77
2023/01/09 09:24:03;;;;;;;4.38;2.80;;;7.20;99.90;;;;;;5077949;28;20199;-77
2023/01/09 09:26:28;;;;;;;2.78;2.17;;;7.30;99.90;;;;;;5078166;28;20208;-77
2023/01/09 09:28:54;;;;;;;3.20;2.50;;;7.30;99.90;;;;;;5078015;28;20273;-77
2023/01/09 09:31:19;;;;;;;2.45;2.25;;;7.30;99.90;;;;;;5078320;28;20173;-77
2023/01/09 09:33:45;;;;;;;2.35;2.15;;;7.30;99.90;;;;;;5078071;28;20200;-77
2023/01/09 09:36:10;;;;;;;2.17;1.70;;;7.30;99.90;;;;;;5078460;28;20183;-77
2023/01/09 09:38:36;;;;;;;4.03;2.10;;;7.30;99.90;;;;;;5077762;28;20300;-77
2023/01/09 09:44:52;;;;;;;4.80;2.50;;;7.30;99.90;;;;;;5053329;28;20235;-77
2023/01/09 09:47:40;;;;;;;3.03;1.65;;;7.40;99.90;;;;;;5096059;28;20180;-77
2023/01/09 09:50:27;;;;;;;2.78;1.20;;;7.40;99.90;;;;;;5076991;28;20173;-77
2023/01/09 09:53:19;;;;;;;1.85;1.63;;;7.40;99.90;;;;;;5095737;28;20222;-77
2023/01/09 09:55:47;;;;;;;5.97;2.00;;;7.30;99.90;;;;;;5078240;28;20165;-77
2023/01/09 09:58:22;;;;;;;2.45;1.30;;;7.30;99.90;;;;;;5077964;28;20201;-77
2023/01/09 10:00:49;;;;;;;4.90;1.20;;;7.40;99.90;;;;;;5077773;28;20179;-77
2023/01/09 10:03:44;;;;;;;2.03;1.10;;;7.40;99.90;;;;;;5078262;28;20196;-77
2023/01/09 10:06:15;;;;;;;4.72;1.40;;;7.40;99.90;;;;;;5077560;28;20161;-77
2023/01/09 10:09:01;;;;;;;1.83;1.02;;;7.40;99.90;;;;;;5095726;28;20187;-77
2023/01/09 10:11:36;;;;;;;4.03;1.20;;;7.40;99.90;;;;;;5078310;28;20218;-77
2023/01/09 10:14:04;;;;;;;1.20;1.00;;;7.30;99.90;;;;;;5095288;28;20219;-77
2023/01/09 10:17:02;;;;;;;4.25;1.23;;;7.30;99.90;;;;;;5077091;28;20169;-77
2023/01/09 10:19:42;;;;;;;4.43;1.30;;;7.30;99.90;;;;;;5077134;28;20181;-77
2023/01/09 10:22:32;;;;;;;3.42;1.52;;;7.40;99.90;;;;;;5077300;28;20168;-77
2023/01/09 10:25:18;;;;;;;2.55;1.15;;;7.30;99.90;;;;;;5076943;28;20199;-77
2023/01/09 10:28:12;;;;;;;2.67;1.40;;;7.40;99.90;;;;;;5077138;28;20200;-77
2023/01/09 10:30:47;;;;;;;3.65;1.33;;;7.50;99.90;;;;;;5076898;28;20222;-77
2023/01/09 10:33:47;;;;;;;2.25;0.93;;;7.40;99.90;;;;;;5076718;28;20197;-77
2023/01/09 10:36:28;;;;;;;3.30;1.23;;;7.40;99.90;;;;;;5076875;28;20180;-77
2023/01/09 10:38:57;;;;;;;3.65;1.10;;;7.50;99.90;;;;;;5077458;28;20169;-77
2023/01/09 10:41:52;;;;;;;1.88;1.10;;;7.50;99.90;;;;;;5076519;28;20177;-77
2023/01/09 10:44:36;;;;;;;1.58;1.00;;;7.60;99.90;;;;;;5076436;28;20227;-77
2023/01/09 10:47:16;;;;;;;2.28;1.23;;;7.70;99.90;;;;;;5076282;28;20264;-77
2023/01/09 10:49:44;;;;;;;4.78;1.40;;;7.80;99.90;;;;;;5076868;28;20165;-78
2023/01/09 10:52:19;;;;;;;1.67;1.17;;;7.90;99.90;;;;;;5077082;28;20275;-78
2023/01/09 10:55:10;;;;;;;4.13;1.40;;;8.10;99.90;;;;;;5076344;28;20689;-78
2023/01/09 10:57:44;;;;;;;4.47;1.40;;;8.30;99.90;;;;;;5030133;28;20576;-78
2023/01/09 11:00:16;;;;;;;2.08;1.08;;;8.50;99.90;;;;;;5076247;28;20648;-78
2023/01/09 11:02:42;;;;;;;1.58;1.08;;;8.50;99.90;;;;;;5075893;28;20200;-78
2023/01/09 11:05:13;;;;;;;4.28;1.30;;;8.50;99.90;;;;;;5076008;28;20222;-78
2023/01/09 11:07:43;;;;;;;1.85;1.25;;;8.50;99.90;;;;;;5094581;28;20154;-78
2023/01/09 11:10:11;;;;;;;4.20;1.30;;;8.50;99.90;;;;;;5076185;28;20256;-78
2023/01/09 11:12:39;;;;;;;1.60;1.50;;;8.20;99.90;;;;;;5076236;28;20200;-78
2023/01/09 11:15:27;;;;;;;7.80;6.90;;;7.90;99.90;;;;;;5076387;28;20175;-78
2023/01/09 11:17:55;;;;;;;5.13;4.63;;;7.80;99.90;;;;;;5094262;28;20184;-78
2023/01/09 11:20:28;;;;;;;3.63;2.63;;;7.70;99.90;;;;;;5076982;28;20297;-78
2023/01/09 11:22:56;;;;;;;3.58;2.10;;;7.80;99.90;;;;;;5076325;28;20220;-78
2023/01/09 11:25:24;;;;;;;2.83;2.63;;;8.00;99.90;;;;;;5075882;28;20177;-78
2023/01/09 11:28:03;;;;;;;1.25;1.10;;;8.20;99.90;;;;;;5094024;28;20189;-78
2023/01/09 11:30:49;;;;;;;1.45;1.20;;;8.20;99.90;;;;;;5094314;28;20309;-78
2023/01/09 11:33:20;;;;;;;2.60;1.65;;;8.30;99.90;;;;;;5075366;28;20237;-78
2023/01/09 11:35:57;;;;;;;1.85;1.10;;;8.40;99.90;;;;;;5093827;28;20164;-78
2023/01/09 11:38:22;;;;;;;3.25;1.20;;;8.30;99.90;;;;;;5094013;28;20200;-78
2023/01/09 11:41:00;;;;;;;2.78;1.60;;;8.40;99.90;;;;;;5093768;28;20172;-78
2023/01/09 11:43:34;;;;;;;3.33;1.73;;;8.40;99.90;;;;;;5075957;28;20196;-78
2023/01/09 11:46:04;;;;;;;2.78;2.05;;;8.40;99.90;;;;;;5094538;28;20173;-78
2023/01/09 11:48:53;;;;;;;3.88;1.30;;;8.40;99.90;;;;;;5076431;28;20191;-78
2023/01/09 11:51:27;;;;;;;2.50;1.60;;;8.50;99.90;;;;;;5094052;28;20180;-78
2023/01/09 11:53:58;;;;;;;3.60;1.63;;;8.50;99.90;;;;;;5075469;28;20288;-78
2023/01/09 11:56:24;;;;;;;2.97;1.40;;;8.50;99.90;;;;;;5093558;28;20181;-78
2023/01/09 11:58:50;;;;;;;2.15;1.35;;;8.60;99.90;;;;;;5075454;28;20176;-78
2023/01/09 12:01:36;;;;;;;6.85;3.88;;;8.50;99.90;;;;;;5076220;28;20177;-78
2023/01/09 12:04:23;;;;;;;7.82;6.15;;;8.60;99.90;;;;;;5076482;28;20197;-78
2023/01/09 12:07:03;;;;;;;6.90;4.28;;;8.60;99.90;;;;;;5075815;28;20173;-78
2023/01/09 12:09:51;;;;;;;4.32;2.15;;;8.60;99.90;;;;;;5076371;28;20180;-78
2023/01/09 12:12:32;;;;;;;2.35;1.30;;;8.60;99.90;;;;;;5076339;28;20172;-78
2023/01/09 12:15:19;;;;;;;2.50;1.77;;;8.50;99.90;;;;;;5078328;28;20169;-78
2023/01/09 12:18:12;;;;;;;2.25;1.52;;;8.50;99.90;;;;;;5079319;28;20204;-78
2023/01/09 12:20:43;;;;;;;3.38;1.60;;;8.50;99.90;;;;;;5079097;28;20169;-78
2023/01/09 12:23:36;;;;;;;2.45;1.40;;;8.50;99.90;;;;;;5078868;28;20250;-78
2023/01/09 12:26:16;;;;;;;2.13;1.23;;;8.50;99.90;;;;;;5079899;28;20161;-78
2023/01/09 12:28:48;;;;;;;2.97;1.40;;;8.40;99.90;;;;;;5097347;28;20173;-78
2023/01/09 12:31:38;;;;;;;2.42;1.30;;;8.40;99.90;;;;;;5079136;28;20185;-78
2023/01/09 12:34:26;;;;;;;2.20;1.58;;;8.30;99.90;;;;;;5078892;28;20314;-78
2023/01/09 12:37:12;;;;;;;2.03;1.17;;;8.20;99.90;;;;;;5097676;28;20188;-78
2023/01/09 12:39:55;;;;;;;2.28;1.52;;;8.30;99.90;;;;;;5078965;28;20161;-77
2023/01/09 12:42:30;;;;;;;1.58;1.48;;;8.30;99.90;;;;;;5079546;28;20256;-77
2023/01/09 12:45:03;;;;;;;3.70;1.50;;;8.30;99.90;;;;;;5078682;28;20243;-77
2023/01/09 12:47:40;;;;;;;2.38;1.33;;;8.30;99.90;;;;;;5079498;28;20169;-77
2023/01/09 12:50:31;;;;;;;3.30;1.30;;;8.30;99.90;;;;;;5079271;28;20160;-77
2023/01/09 12:53:05;;;;;;;3.83;1.20;;;8.30;99.90;;;;;;5078607;28;20200;-77
2023/01/09 12:55:35;;;;;;;1.80;1.10;;;8.40;99.90;;;;;;5078421;28;20169;-77
2023/01/09 12:58:11;;;;;;;1.20;1.00;;;8.40;99.90;;;;;;5078251;28;20679;-77
2023/01/09 13:00:41;;;;;;;2.97;0.98;;;8.40;99.90;;;;;;5097203;28;20184;-77
2023/01/09 13:03:37;;;;;;;2.15;1.15;;;8.30;99.90;;;;;;5078902;28;20236;-77
2023/01/09 13:06:05;;;;;;;1.65;0.88;;;8.20;99.90;;;;;;5078164;28;20260;-77
2023/01/09 13:08:41;;;;;;;1.75;1.05;;;8.10;99.90;;;;;;5078063;28;20241;-77
2023/01/09 13:11:09;;;;;;;0.80;0.70;;;8.00;99.90;;;;;;5095979;28;20185;-77
2023/01/09 13:13:44;;;;;;;1.27;1.00;;;8.10;99.90;;;;;;5077866;28;20204;-77
2023/01/09 13:16:22;;;;;;;1.25;0.98;;;8.00;99.90;;;;;;5078367;28;20206;-77
2023/01/09 13:18:56;;;;;;;1.63;0.77;;;7.90;99.90;;;;;;5077813;28;20628;-77
2023/01/09 13:21:21;;;;;;;1.45;0.90;;;7.90;99.90;;;;;;5095973;28;20168;-77
2023/01/09 13:24:21;;;;;;;5.07;1.10;;;7.90;99.90;;;;;;5078024;28;20264;-77
2023/01/09 13:26:55;;;;;;;1.83;1.17;;;7.90;99.90;;;;;;5045253;28;20208;-77
2023/01/09 13:29:27;;;;;;;0.80;0.80;;;7.90;99.90;;;;;;5077449;28;20172;-77
2023/01/09 13:31:56;;;;;;;1.90;1.23;;;8.00;99.90;;;;;;5077436;28;20180;-77
2023/01/09 13:34:25;;;;;;;2.53;1.10;;;8.00;99.90;;;;;;5077570;28;20683;-77
2023/01/09 13:36:54;;;;;;;2.15;1.30;;;7.90;99.90;;;;;;5077221;28;20197;-77
2023/01/09 13:39:23;;;;;;;1.20;1.05;;;7.90;99.90;;;;;;5095447;28;20207;-77
2023/01/09 13:44:55;;;;;;;2.28;1.38;;;7.80;99.90;;;;;;5095874;28;20179;-77
2023/01/09 13:47:27;;;;;;;3.33;1.05;;;7.80;99.90;;;;;;5077184;28;20263;-77
2023/01/09 13:49:58;;;;;;;2.55;1.35;;;7.80;99.90;;;;;;5077116;28;20644;-77
2023/01/09 13:52:26;;;;;;;2.17;1.20;;;7.70;99.90;;;;;;5076871;28;20709;-77
2023/01/09 13:54:52;;;;;;;1.65;1.10;;;7.70;99.90;;;;;;5077197;28;20184;-77
2023/01/09 13:57:17;;;;;;;2.90;1.20;;;7.70;99.90;;;;;;5077595;28;20292;-77
2023/01/09 13:59:44;;;;;;;2.03;1.10;;;7.60;99.90;;;;;;5077169;28;20265;-77
2023/01/09 14:02:35;;;;;;;3.30;1.10;;;7.60;99.90;;;;;;5077037;28;20607;-77
2023/01/09 14:05:02;;;;;;;1.67;0.98;;;7.60;99.90;;;;;;5094865;28;20179;-77
2023/01/09 14:07:32;;;;;;;2.70;1.25;;;7.60;99.90;;;;;;5076896;28;20227;-77
2023/01/09 14:10:18;;;;;;;5.07;1.45;;;7.50;99.90;;;;;;5076726;28;20676;-77
2023/01/09 14:12:44;;;;;;;11.52;6.10;;;7.50;99.90;;;;;;5077259;28;20212;-77
2023/01/09 14:15:35;;;;;;;5.38;2.05;;;7.50;99.90;;;;;;5077482;28;20173;-77
2023/01/09 14:18:24;;;;;;;6.13;2.80;;;7.60;99.90;;;;;;5078269;28;20192;-77
2023/01/09 14:21:09;;;;;;;1.73;1.30;;;7.60;99.90;;;;;;5076531;28;20536;-77
2023/01/09 14:23:45;;;;;;;2.70;1.40;;;7.60;99.90;;;;;;5076368;28;20200;-78
2023/01/09 14:26:37;;;;;;;1.65;1.42;;;7.60;99.90;;;;;;5077335;28;20165;-77
2023/01/09 14:29:35;;;;;;;1.30;1.20;;;7.60;99.90;;;;;;5076326;28;20173;-77
2023/01/09 14:32:22;;;;;;;2.83;1.08;;;7.70;99.90;;;;;;5094626;28;20244;-77
2023/01/09 14:35:02;;;;;;;1.27;1.13;;;7.90;99.90;;;;;;5094328;28;20175;-78
2023/01/09 14:37:29;;;;;;;6.63;5.32;;;7.90;99.90;;;;;;5075656;28;20188;-78
2023/01/09 14:39:57;;;;;;;1.13;1.00;;;8.00;99.90;;;;;;5094616;28;20193;-77
2023/01/09 14:42:27;;;;;;;4.35;1.88;;;7.90;99.90;;;;;;5076401;28;20608;-78
2023/01/09 14:45:05;;;;;;;2.00;1.90;;;7.90;99.90;;;;;;5076194;28;20164;-78
2023/01/09 14:47:30;;;;;;;5.80;4.55;;;7.80;99.90;;;;;;5076264;28;20261;-82
2023/01/09 14:50:12;;;;;;;8.27;7.22;;;7.70;99.90;;;;;;5076065;28;20204;-78
2023/01/09 14:52:45;;;;;;;5.25;4.57;;;7.70;99.90;;;;;;5076757;28;20564;-78
2023/01/09 14:55:34;;;;;;;2.50;2.10;;;7.60;99.90;;;;;;5075959;28;20256;-78
2023/01/09 14:58:10;;;;;;;4.05;2.45;;;7.60;99.90;;;;;;5094201;28;20197;-78
2023/01/09 15:00:36;;;;;;;2.33;2.13;;;7.60;99.90;;;;;;5075803;28;20176;-78
2023/01/09 15:03:02;;;;;;;2.22;1.40;;;7.70;99.90;;;;;;5075729;28;20192;-78
2023/01/09 15:05:30;;;;;;;1.70;1.60;;;7.60;99.90;;;;;;5093997;28;20169;-78
2023/01/09 15:08:00;;;;;;;2.33;1.65;;;7.60;99.90;;;;;;5075769;28;20211;-78
2023/01/09 15:10:36;;;;;;;14.63;11.35;;;7.50;99.90;;;;;;5075735;28;20168;-79
2023/01/09 15:13:39;;;;;;;6.47;4.40;;;7.40;99.90;;;;;;5093573;28;20200;-78
2023/01/09 15:16:05;;;;;;;5.53;4.20;;;7.40;99.90;;;;;;5094105;28;20165;-78
2023/01/09 15:18:47;;;;;;;3.63;3.33;;;7.40;99.90;;;;;;5075675;28;20253;-78
2023/01/09 15:21:18;;;;;;;2.70;2.50;;;7.30;99.90;;;;;;5075778;28;20200;-77
2023/01/09 15:23:44;;;;;;;2.42;2.22;;;7.30;99.90;;;;;;5076115;28;20202;-77
2023/01/09 15:26:21;;;;;;;2.22;2.03;;;7.30;99.90;;;;;;5075890;28;20218;-78
2023/01/09 15:28:46;;;;;;;2.22;1.90;;;7.30;99.90;;;;;;5094084;28;20164;-78
2023/01/09 15:31:18;;;;;;;2.17;1.67;;;7.20;99.90;;;;;;5075742;28;20203;-79
2023/01/09 15:33:46;;;;;;;1.80;1.70;;;7.10;99.90;;;;;;5076096;28;20216;-78
2023/01/09 15:36:25;;;;;;;2.25;1.70;;;7.00;99.90;;;;;;5075620;28;20222;-78
2023/01/09 15:38:51;;;;;;;3.35;1.95;;;6.90;99.90;;;;;;5075669;28;20330;-78
2023/01/09 15:44:25;;;;;;;2.10;1.90;;;6.80;99.90;;;;;;5094000;28;20191;-77
2023/01/09 15:46:55;;;;;;;3.10;2.80;;;6.70;99.90;;;;;;5076121;28;20192;-77
2023/01/09 15:49:21;;;;;;;2.25;2.05;;;6.60;99.90;;;;;;5077346;28;20627;-76
2023/01/09 15:51:47;;;;;;;2.42;1.98;;;6.40;99.90;;;;;;5079394;28;20191;-77
2023/01/09 15:54:15;;;;;;;2.13;1.33;;;6.30;99.90;;;;;;5079858;28;20224;-77
2023/01/09 15:57:36;;;;;;;3.17;1.25;;;6.30;99.90;;;;;;5079700;28;20177;-77
2023/01/09 16:00:22;;;;;;;1.65;1.55;;;6.30;99.90;;;;;;5079328;28;20639;-77
2023/01/09 16:05:32;;;;;;;2.10;1.90;;;6.50;99.90;;;;;;5097730;28;20256;-79
2023/01/09 16:07:59;;;;;;;5.53;1.50;;;6.60;99.90;;;;;;5097538;28;20168;-78
2023/01/09 16:10:33;;;;;;;3.40;1.50;;;6.60;99.90;;;;;;5079330;28;20192;-78
2023/01/09 16:13:00;;;;;;;1.50;1.40;;;6.70;99.90;;;;;;5079299;28;20245;-78
2023/01/09 16:15:28;;;;;;;1.77;1.65;;;6.70;99.90;;;;;;5079172;28;20200;-79
2023/01/09 16:18:12;;;;;;;2.17;1.60;;;6.70;99.90;;;;;;5078828;28;20204;-78
2023/01/09 16:20:38;;;;;;;2.78;2.40;;;6.70;99.90;;;;;;5097429;28;20177;-78
2023/01/09 16:23:20;;;;;;;2.90;2.50;;;6.70;99.90;;;;;;5096977;28;20193;-78
2023/01/09 16:25:45;;;;;;;3.83;2.15;;;6.70;99.90;;;;;;5097045;28;20188;-78
2023/01/09 16:28:20;;;;;;;1.95;1.70;;;6.70;99.90;;;;;;5078920;28;20224;-79
2023/01/09 16:31:16;;;;;;;2.42;1.70;;;6.70;99.90;;;;;;5078637;28;20180;-79
2023/01/09 16:33:45;;;;;;;1.85;1.58;;;6.70;99.90;;;;;;5096867;28;20238;-78
2023/01/09 16:36:12;;;;;;;2.20;1.67;;;6.70;99.90;;;;;;5079194;28;20263;-78
2023/01/09 16:39:11;;;;;;;4.25;1.42;;;6.70;99.90;;;;;;5078449;28;20211;-78
2023/01/09 16:45:51;;;;;;;1.83;1.20;;;6.70;99.90;;;;;;5096956;28;20218;-78
2023/01/09 16:48:28;;;;;;;1.48;1.23;;;6.70;99.90;;;;;;5078999;28;20169;-78
2023/01/09 16:50:53;;;;;;;1.80;1.30;;;6.50;99.90;;;;;;5078454;28;20168;-78
2023/01/09 16:53:25;;;;;;;1.05;1.00;;;6.50;99.90;;;;;;5078339;28;20199;-78
2023/01/09 16:59:15;;;;;;;1.45;1.35;;;6.40;99.90;;;;;;5096081;28;20235;-78
2023/01/09 17:01:42;;;;;;;1.73;1.50;;;6.50;99.90;;;;;;5078545;28;20181;-78
2023/01/09 17:04:12;;;;;;;1.60;1.50;;;6.50;99.90;;;;;;5096221;28;20196;-78
2023/01/09 17:06:39;;;;;;;1.98;1.50;;;6.50;99.90;;;;;;5096304;28;20177;-78
2023/01/09 17:09:13;;;;;;;1.45;1.35;;;6.40;99.90;;;;;;5078176;28;20184;-78
2023/01/09 17:11:39;;;;;;;1.63;1.50;;;6.30;99.90;;;;;;5078579;28;20240;-78
2023/01/09 17:14:06;;;;;;;2.00;1.80;;;6.30;99.90;;;;;;5095996;28;20231;-78
2023/01/09 17:16:45;;;;;;;3.00;2.80;;;6.30;99.90;;;;;;5077786;28;20181;-79
2023/01/09 17:19:17;;;;;;;2.78;2.58;;;6.30;99.90;;;;;;5077771;28;20326;-79
2023/01/09 17:21:43;;;;;;;3.38;2.70;;;6.30;99.90;;;;;;5077685;28;20180;-79
2023/01/09 17:29:37;;;;;;;9.07;8.38;;;6.30;99.90;;;;;;5096237;28;20199;-78
2023/01/09 17:32:45;;;;;;;5.85;5.32;;;6.40;99.90;;;;;;5095692;28;20173;-78
2023/01/09 17:35:11;;;;;;;4.82;4.35;;;6.30;99.90;;;;;;5078623;28;20188;-78
2023/01/09 17:40:59;;;;;;;4.22;2.80;;;6.40;99.90;;;;;;5095815;28;20175;-78
2023/01/09 17:43:24;;;;;;;3.28;2.78;;;6.50;99.90;;;;;;5095439;28;20193;-78
2023/01/09 17:45:50;;;;;;;3.40;2.20;;;6.50;99.90;;;;;;5077879;28;20184;-78
2023/01/09 17:48:19;;;;;;;2.28;1.95;;;6.50;99.90;;;;;;5078046;28;20177;-78
2023/01/09 17:50:46;;;;;;;1.98;1.75;;;6.40;99.90;;;;;;5077008;28;20188;-78
2023/01/09 17:53:12;;;;;;;1.48;1.40;;;6.40;99.90;;;;;;5077070;28;20197;-78
2023/01/09 17:55:40;;;;;;;1.90;1.30;;;6.30;99.90;;;;;;5077498;28;20234;-78
2023/01/09 17:58:06;;;;;;;1.83;1.20;;;6.30;99.90;;;;;;5077875;28;20204;-78
2023/01/09 18:00:35;;;;;;;5.53;1.75;;;6.30;99.90;;;;;;5095817;28;20666;-78
2023/01/09 18:03:02;;;;;;;1.40;1.38;;;6.30;99.90;;;;;;5077168;28;20193;-78
2023/01/09 18:05:29;;;;;;;1.50;1.40;;;6.40;99.90;;;;;;5095476;28;20184;-78
2023/01/09 18:07:55;;;;;;;2.08;1.40;;;6.40;99.90;;;;;;5077959;28;20179;-79
2023/01/09 18:10:26;;;;;;;1.75;1.50;;;6.50;99.90;;;;;;5077204;28;20173;-79
2023/01/09 18:12:54;;;;;;;2.63;1.40;;;6.50;99.90;;;;;;5077903;28;20207;-79
2023/01/09 18:15:21;;;;;;;2.20;2.10;;;6.50;99.90;;;;;;5077918;28;20180;-79
2023/01/09 18:17:52;;;;;;;2.45;1.70;;;6.50;99.90;;;;;;5076979;28;20296;-79
2023/01/09 18:20:18;;;;;;;51.15;33.65;;;6.50;99.90;;;;;;5078030;28;20169;-79
2023/01/09 18:22:44;;;;;;;26.20;18.55;;;6.40;99.90;;;;;;5077909;28;20300;-78
2023/01/09 18:25:09;;;;;;;12.60;7.93;;;6.40;99.90;;;;;;5076667;28;20168;-79
2023/01/09 18:27:36;;;;;;;5.35;3.65;;;6.40;99.90;;;;;;5077462;28;20220;-79
2023/01/09 18:30:02;;;;;;;5.68;4.57;;;6.30;99.90;;;;;;5095275;28;20260;-79
2023/01/09 18:32:28;;;;;;;4.90;4.32;;;6.40;99.90;;;;;;5076656;28;20612;-80
2023/01/09 18:34:54;;;;;;;4.03;3.60;;;6.40;99.90;;;;;;5076957;28;20260;-79
2023/01/09 18:37:19;;;;;;;4.18;3.60;;;6.40;99.90;;;;;;5094712;28;20193;-79
2023/01/09 18:39:45;;;;;;;3.15;2.80;;;6.40;99.90;;;;;;5076644;28;20172;-78
2023/01/09 18:42:10;;;;;;;3.20;2.40;;;6.50;99.90;;;;;;5076963;28;20195;-77
2023/01/09 18:44:36;;;;;;;2.13;2.00;;;6.50;99.90;;;;;;5095611;28;20169;-78
2023/01/09 18:47:05;;;;;;;4.20;2.38;;;6.50;99.90;;;;;;5078948;28;20248;-78
2023/01/09 18:49:49;;;;;;;2.78;1.92;;;6.50;99.90;;;;;;5079180;28;20172;-78
2023/01/09 18:52:22;;;;;;;3.85;2.05;;;6.50;99.90;;;;;;5095707;28;20197;-78
2023/01/09 18:54:51;;;;;;;1.45;1.35;;;6.50;99.90;;;;;;5077105;28;20177;-78
2023/01/09 18:57:17;;;;;;;1.10;1.10;;;6.40;99.90;;;;;;5077131;28;20193;-78
2023/01/09 18:59:43;;;;;;;2.10;0.93;;;6.30;99.90;;;;;;5076499;28;20179;-78
2023/01/09 19:02:19;;;;;;;2.67;0.60;;;6.10;99.90;;;;;;5076119;28;20183;-78
2023/01/09 19:04:44;;;;;;;0.83;0.83;;;6.00;99.90;;;;;;5076925;28;20169;-78
2023/01/09 19:07:26;;;;;;;0.50;0.50;;;5.90;99.90;;;;;;5076902;28;20206;-79
2023/01/09 19:09:52;;;;;;;0.30;0.30;;;5.80;99.90;;;;;;5076693;28;20180;-79
2023/01/09 19:12:18;;;;;;;1.00;0.50;;;5.90;99.90;;;;;;5076377;28;20187;-78
2023/01/09 19:14:47;;;;;;;1.47;0.57;;;5.90;99.90;;;;;;5076150;28;20180;-79
2023/01/09 19:17:13;;;;;;;1.00;0.80;;;5.80;99.90;;;;;;5076332;28;20223;-78
2023/01/09 19:20:10;;;;;;;1.37;1.20;;;5.80;99.90;;;;;;5077715;28;20176;-78
2023/01/09 19:22:35;;;;;;;1.10;1.00;;;5.80;99.90;;;;;;5076489;28;20192;-77
2023/01/09 19:25:01;;;;;;;1.77;1.67;;;5.70;99.90;;;;;;5094997;28;20244;-82
2023/01/09 19:27:30;;;;;;;4.60;3.13;;;5.70;99.90;;;;;;5076874;28;20659;-78
2023/01/09 19:29:55;;;;;;;2.37;2.20;;;5.70;99.90;;;;;;5077834;28;20173;-79
2023/01/09 19:32:25;;;;;;;13.40;12.20;;;5.80;99.90;;;;;;5077588;28;20754;-78
2023/01/09 19:34:57;;;;;;;6.17;5.57;;;5.70;99.90;;;;;;5077901;28;20176;-78
2023/01/09 19:37:23;;;;;;;11.47;10.27;;;5.70;99.90;;;;;;5077804;28;20232;-78
2023/01/09 19:39:48;;;;;;;15.57;13.97;;;5.80;99.90;;;;;;5078115;28;20180;-79
2023/01/09 19:42:18;;;;;;;5.53;5.03;;;5.80;99.90;;;;;;5077566;28;20180;-79
2023/01/09 19:44:46;;;;;;;19.50;17.85;;;5.80;99.90;;;;;;5094277;28;20202;-79
2023/01/09 19:47:13;;;;;;;4.30;3.90;;;5.80;99.90;;;;;;5076810;28;20256;-79
2023/01/09 19:49:38;;;;;;;4.10;3.27;;;5.80;99.90;;;;;;5096090;28;20179;-79
2023/01/09 19:52:04;;;;;;;2.93;2.73;;;5.80;99.90;;;;;;5078438;28;20216;-79
2023/01/09 19:54:31;;;;;;;2.20;1.80;;;5.70;99.90;;;;;;5095604;28;20208;-79
2023/01/09 19:56:56;;;;;;;2.07;1.90;;;5.70;99.90;;;;;;5095944;28;20247;-78
2023/01/09 19:59:22;;;;;;;3.27;3.07;;;5.70;99.90;;;;;;5076549;28;20180;-78
2023/01/09 20:01:47;;;;;;;5.20;4.80;;;5.80;99.90;;;;;;5077651;28;20173;-79
2023/01/09 20:04:14;;;;;;;22.97;20.57;;;5.80;99.90;;;;;;5077765;28;20201;-79
2023/01/09 20:06:45;;;;;;;17.80;16.00;;;5.70;99.90;;;;;;5096223;28;20543;-79
2023/01/09 20:09:13;;;;;;;20.63;18.37;;;5.70;99.90;;;;;;5078565;28;20175;-79
2023/01/09 20:11:45;;;;;;;23.83;20.87;;;5.70;99.90;;;;;;5078509;28;20181;-79
2023/01/09 20:14:13;;;;;;;27.87;24.87;;;5.80;99.90;;;;;;5096333;28;20200;-79
2023/01/09 20:16:39;;;;;;;8.80;7.93;;;5.70;99.90;;;;;;5078205;28;20275;-79
2023/01/09 20:19:07;;;;;;;6.17;5.37;;;5.70;99.90;;;;;;5076973;28;20188;-79
2023/01/09 20:21:33;;;;;;;3.93;3.50;;;5.70;99.90;;;;;;5077747;28;20177;-79
2023/01/09 20:24:00;;;;;;;8.83;8.10;;;5.70;99.90;;;;;;5095865;28;20216;-79
2023/01/09 20:26:27;;;;;;;4.20;3.90;;;5.70;99.90;;;;;;5096247;28;20183;-78
2023/01/09 20:28:53;;;;;;;3.90;3.47;;;5.70;99.90;;;;;;5078194;28;20177;-79
2023/01/09 20:31:20;;;;;;;2.80;2.60;;;5.70;99.90;;;;;;5077957;28;20177;-79
2023/01/09 20:33:47;;;;;;;2.80;2.60;;;5.70;99.90;;;;;;5096026;28;20217;-79
2023/01/09 20:36:14;;;;;;;2.90;2.70;;;5.80;99.90;;;;;;5098862;28;20234;-79
2023/01/09 20:38:41;;;;;;;3.00;2.80;;;5.80;99.90;;;;;;5080666;28;20211;-79
2023/01/09 20:41:21;;;;;;;2.70;2.50;;;5.80;99.90;;;;;;5098676;28;20177;-79
2023/01/09 20:43:58;;;;;;;4.60;4.20;;;5.90;99.90;;;;;;5080218;28;20261;-79
2023/01/09 20:46:25;;;;;;;3.07;2.70;;;5.80;99.90;;;;;;5080940;28;20176;-79
2023/01/09 20:49:05;;;;;;;5.97;5.45;;;5.80;99.90;;;;;;5081477;28;20238;-79
2023/01/09 20:51:35;;;;;;;13.90;12.47;;;5.80;99.90;;;;;;5081369;28;20177;-79
2023/01/09 20:54:39;;;;;;;6.47;4.87;;;5.70;99.90;;;;;;5098633;28;20224;-79
2023/01/09 20:57:17;;;;;;;3.27;2.97;;;5.70;99.90;;;;;;5081092;28;20269;-79
2023/01/09 20:59:43;;;;;;;8.07;7.27;;;5.60;99.90;;;;;;5079161;28;20173;-78
2023/01/09 21:02:13;;;;;;;6.10;5.50;;;5.60;99.90;;;;;;5079811;28;20230;-79
2023/01/09 21:04:38;;;;;;;11.17;9.30;;;5.60;99.90;;;;;;5099834;28;20157;-79
2023/01/09 21:07:04;;;;;;;6.63;5.93;;;5.70;99.90;;;;;;5079761;28;20211;-78
2023/01/09 21:09:29;;;;;;;4.53;4.13;;;5.70;99.90;;;;;;5077981;28;20177;-78
2023/01/09 21:12:23;;;;;;;4.87;3.97;;;5.70;99.90;;;;;;5096424;28;20185;-78
2023/01/09 21:14:48;;;;;;;7.50;6.53;;;5.70;99.90;;;;;;5096114;28;20194;-81
2023/01/09 21:17:16;;;;;;;7.30;6.53;;;5.60;99.90;;;;;;5078822;28;20208;-78
2023/01/09 21:19:42;;;;;;;3.07;2.87;;;5.70;99.90;;;;;;5077995;28;20177;-78
2023/01/09 21:22:07;;;;;;;3.00;2.70;;;5.70;99.90;;;;;;5077761;28;20192;-78
2023/01/09 21:24:56;;;;;;;2.93;2.73;;;5.70;99.90;;;;;;5077819;28;20177;-78